Time;durP1;ratioP1;P1;durP2;ratioP2;P2;SDS_P1;SDS_P2;PMS_P1;PMS_P2;Temp;Humidity;BMP_temperature;BMP_pressure;BME280_temperature;BME280_humidity;BME280_pressure;Samples;Min_cycle;Max_cycle;Signal;HPM_P1;HPM_P2
2022/05/22 00:00:22;;;;;;;0.68;0.68;;;12.10;99.90;;;;;;5015100;28;20481;-76
2022/05/22 00:02:48;;;;;;;0.90;0.77;;;12.00;99.90;;;;;;5030071;28;20061;-76
2022/05/22 00:05:17;;;;;;;0.68;0.60;;;12.00;99.90;;;;;;5015223;28;20072;-76
2022/05/22 00:07:43;;;;;;;3.35;0.57;;;11.90;99.90;;;;;;5030229;28;20033;-76
2022/05/22 00:10:10;;;;;;;7.25;0.85;;;11.90;99.90;;;;;;5014985;28;20018;-76
2022/05/22 00:12:36;;;;;;;2.42;0.90;;;;;;;;;;5031770;28;20128;-76
2022/05/22 00:15:03;;;;;;;2.22;0.75;;;11.90;99.90;;;;;;5015280;28;20033;-76
2022/05/22 00:17:29;;;;;;;0.68;0.68;;;11.80;99.90;;;;;;5015157;28;20028;-76
2022/05/22 00:19:55;;;;;;;1.15;1.10;;;11.80;99.90;;;;;;5021755;28;20074;-76
2022/05/22 00:22:21;;;;;;;5.72;1.17;;;11.80;99.90;;;;;;5021737;28;20026;-76
2022/05/22 00:24:47;;;;;;;3.63;0.70;;;11.80;99.90;;;;;;5019485;28;20041;-76
2022/05/22 00:27:12;;;;;;;0.75;0.70;;;11.70;99.90;;;;;;5019744;28;20076;-77
2022/05/22 00:29:39;;;;;;;4.13;0.70;;;11.70;99.90;;;;;;5033950;28;20026;-76
2022/05/22 00:32:06;;;;;;;0.60;0.60;;;11.70;99.90;;;;;;5019761;28;20071;-76
2022/05/22 00:34:32;;;;;;;1.30;0.70;;;11.60;99.90;;;;;;5020199;28;20221;-78
2022/05/22 00:36:58;;;;;;;1.13;1.02;;;11.60;99.90;;;;;;5017468;28;20583;-76
2022/05/22 00:39:23;;;;;;;1.50;1.05;;;11.60;99.90;;;;;;5017336;28;20037;-76
2022/05/22 00:41:54;;;;;;;1.48;0.70;;;11.60;99.90;;;;;;5017670;28;20109;-76
2022/05/22 00:44:21;;;;;;;1.17;0.82;;;11.70;99.90;;;;;;5017415;28;20022;-78
2022/05/22 00:46:48;;;;;;;0.73;0.60;;;11.60;99.90;;;;;;5033727;28;20025;-79
2022/05/22 00:49:21;;;;;;;2.00;0.70;;;11.60;99.90;;;;;;5022289;28;20030;-76
2022/05/22 00:52:11;;;;;;;1.00;1.00;;;11.60;99.90;;;;;;5037808;28;20117;-79
2022/05/22 00:54:42;;;;;;;;;;;11.60;99.90;;;;;;5033324;28;20069;-79
2022/05/22 00:57:33;;;;;;;1.85;1.40;;;11.60;99.90;;;;;;5031402;28;20275;-77
2022/05/22 01:00:05;;;;;;;6.05;0.70;;;11.60;99.90;;;;;;5021085;28;20030;-77
2022/05/22 01:03:26;;;;;;;4.57;0.85;;;11.60;99.90;;;;;;5017441;28;20052;-81
2022/05/22 01:05:17;;;;;;;4.75;1.48;;;11.50;99.90;;;;;;5016720;28;20033;-81
2022/05/22 01:07:43;;;;;;;1.08;1.02;;;11.60;99.90;;;;;;5014312;28;20025;-78
2022/05/22 01:10:09;;;;;;;2.15;1.38;;;11.60;99.90;;;;;;5017764;28;20037;-77
2022/05/22 01:12:34;;;;;;;1.60;0.85;;;11.60;99.90;;;;;;5017206;28;20128;-79
2022/05/22 01:15:00;;;;;;;0.75;0.75;;;11.50;99.90;;;;;;5016753;28;20360;-80
2022/05/22 01:17:28;;;;;;;0.60;0.60;;;11.50;99.90;;;;;;5016581;28;20022;-77
2022/05/22 01:19:56;;;;;;;2.05;0.80;;;11.40;99.90;;;;;;5019226;28;20116;-80
2022/05/22 01:22:27;;;;;;;3.28;1.20;;;11.50;99.90;;;;;;5033284;28;20030;-82
2022/05/22 01:24:54;;;;;;;1.25;0.70;;;11.40;99.90;;;;;;5016840;28;20037;-77
2022/05/22 01:27:25;;;;;;;3.45;1.35;;;11.40;99.90;;;;;;5032483;28;20540;-76
2022/05/22 01:29:52;;;;;;;5.68;1.40;;;11.30;99.90;;;;;;5018848;28;20026;-80
2022/05/22 01:32:17;;;;;;;2.65;1.00;;;11.40;99.90;;;;;;5018965;28;20029;-79
2022/05/22 01:34:43;;;;;;;1.33;0.63;;;11.30;99.90;;;;;;5019430;28;20026;-79
2022/05/22 01:37:09;;;;;;;4.97;1.77;;;11.20;99.90;;;;;;5017578;28;20033;-80
2022/05/22 01:39:35;;;;;;;0.95;0.90;;;11.20;99.90;;;;;;5016486;28;20094;-78
2022/05/22 01:42:00;;;;;;;2.05;1.20;;;11.20;99.90;;;;;;5015126;28;20045;-77
2022/05/22 01:44:26;;;;;;;1.92;1.00;;;11.00;99.90;;;;;;5015355;28;20053;-77
2022/05/22 01:46:52;;;;;;;1.33;0.80;;;11.20;99.90;;;;;;5012796;28;20657;-77
2022/05/22 01:49:20;;;;;;;1.77;0.80;;;11.20;99.90;;;;;;5013221;28;20038;-78
2022/05/22 01:51:46;;;;;;;2.40;0.77;;;11.20;99.90;;;;;;5014524;28;20018;-78
2022/05/22 01:54:11;;;;;;;1.73;1.48;;;11.30;99.90;;;;;;5012610;28;20548;-77
2022/05/22 01:56:39;;;;;;;1.98;0.75;;;11.30;99.90;;;;;;5014584;28;20104;-80
2022/05/22 01:59:07;;;;;;;1.58;0.90;;;11.20;99.90;;;;;;5018363;28;20025;-76
2022/05/22 02:01:34;;;;;;;0.93;0.57;;;11.10;99.90;;;;;;5018555;28;20058;-76
2022/05/22 02:04:01;;;;;;;0.75;0.75;;;11.00;99.90;;;;;;5000757;28;20033;-77
2022/05/22 02:06:26;;;;;;;4.00;0.90;;;10.90;99.90;;;;;;4999308;28;20029;-76
2022/05/22 02:08:54;;;;;;;4.75;1.08;;;;;;;;;;4997604;28;20035;-76
2022/05/22 02:11:19;;;;;;;1.15;0.77;;;10.90;99.90;;;;;;4998662;28;20029;-76
2022/05/22 02:13:51;;;;;;;0.90;0.90;;;10.90;99.90;;;;;;4999006;28;20030;-77
2022/05/22 02:16:17;;;;;;;1.13;1.10;;;10.80;99.90;;;;;;4998805;28;20023;-77
2022/05/22 02:18:43;;;;;;;5.82;1.20;;;10.80;99.90;;;;;;4996764;28;20058;-76
2022/05/22 02:21:09;;;;;;;1.55;1.10;;;10.80;99.90;;;;;;4998183;28;20037;-77
2022/05/22 02:23:36;;;;;;;1.92;1.45;;;10.80;99.90;;;;;;4996357;28;20030;-76
2022/05/22 02:26:02;;;;;;;1.48;0.93;;;10.80;99.90;;;;;;4997046;28;20447;-77
2022/05/22 02:28:28;;;;;;;2.53;1.60;;;10.70;99.90;;;;;;4998590;28;20041;-76
2022/05/22 02:30:58;;;;;;;1.13;1.00;;;10.70;99.90;;;;;;4998919;28;20475;-76
2022/05/22 02:33:25;;;;;;;1.13;0.93;;;10.60;99.90;;;;;;4996780;28;20042;-76
2022/05/22 02:35:51;;;;;;;2.65;1.50;;;10.60;99.90;;;;;;4993842;28;20141;-77
2022/05/22 02:38:17;;;;;;;0.88;0.88;;;10.50;99.90;;;;;;5009787;28;20057;-76
2022/05/22 02:40:44;;;;;;;2.10;0.93;;;;;;;;;;5027185;28;20019;-76
2022/05/22 02:43:10;;;;;;;2.22;0.80;;;10.50;99.90;;;;;;5012584;28;20030;-77
2022/05/22 02:45:38;;;;;;;2.47;2.13;;;10.50;99.90;;;;;;4991215;28;20515;-77
2022/05/22 02:48:05;;;;;;;1.00;0.95;;;10.50;99.90;;;;;;4992494;28;20026;-77
2022/05/22 02:50:32;;;;;;;2.00;0.80;;;10.40;99.90;;;;;;4992752;28;20106;-77
2022/05/22 02:52:58;;;;;;;1.70;1.60;;;10.40;99.90;;;;;;4995109;28;20034;-76
2022/05/22 02:55:24;;;;;;;1.67;1.58;;;10.30;99.90;;;;;;4995442;28;20474;-77
2022/05/22 02:57:50;;;;;;;2.28;1.50;;;10.30;99.90;;;;;;5002340;28;20025;-77
2022/05/22 03:00:24;;;;;;;0.95;0.85;;;10.20;99.90;;;;;;5029197;28;20092;-77
2022/05/22 03:02:50;;;;;;;2.17;1.25;;;10.20;99.90;;;;;;5029741;28;20510;-77
2022/05/22 03:05:16;;;;;;;1.27;1.17;;;10.10;99.90;;;;;;5029119;28;20061;-77
2022/05/22 03:07:42;;;;;;;3.47;1.70;;;10.10;99.90;;;;;;5026840;28;20564;-76
2022/05/22 03:10:11;;;;;;;4.20;1.30;;;10.10;99.90;;;;;;4996589;28;20038;-77
2022/05/22 03:12:37;;;;;;;0.83;0.83;;;10.10;99.90;;;;;;4992718;28;20030;-76
2022/05/22 03:15:06;;;;;;;1.10;0.98;;;10.10;99.90;;;;;;4992561;28;20040;-78
2022/05/22 03:17:32;;;;;;;0.73;0.70;;;10.10;99.90;;;;;;4992876;28;20018;-77
2022/05/22 03:19:58;;;;;;;3.83;1.35;;;10.10;99.90;;;;;;4992406;28;20104;-76
2022/05/22 03:22:23;;;;;;;2.72;0.90;;;10.00;99.90;;;;;;5000492;28;20038;-77
2022/05/22 03:24:50;;;;;;;1.58;1.13;;;10.00;99.90;;;;;;5002862;28;20056;-77
2022/05/22 03:27:18;;;;;;;3.25;1.63;;;10.00;99.90;;;;;;5001655;28;20038;-77
2022/05/22 03:29:47;;;;;;;3.65;1.20;;;10.00;99.90;;;;;;5002527;28;20030;-76
2022/05/22 03:32:14;;;;;;;5.93;1.42;;;10.00;99.90;;;;;;5005131;28;20026;-77
2022/05/22 03:34:45;;;;;;;1.15;1.02;;;9.90;99.90;;;;;;5025108;28;20037;-77
2022/05/22 03:37:14;;;;;;;1.50;1.35;;;10.00;99.90;;;;;;5024842;28;20070;-76
2022/05/22 03:39:39;;;;;;;1.40;1.30;;;9.90;99.90;;;;;;5024293;28;20033;-76
2022/05/22 03:42:06;;;;;;;2.20;1.23;;;10.00;99.90;;;;;;5022887;28;20022;-76
2022/05/22 03:44:32;;;;;;;1.50;1.40;;;10.00;99.90;;;;;;5024475;28;20026;-77
2022/05/22 03:46:57;;;;;;;2.58;1.00;;;10.00;99.90;;;;;;5024250;28;20029;-76
2022/05/22 03:49:23;;;;;;;1.48;1.40;;;9.90;99.90;;;;;;5022306;28;20422;-77
2022/05/22 03:51:49;;;;;;;1.80;1.67;;;;;;;;;;5023094;28;20029;-77
2022/05/22 03:54:15;;;;;;;3.63;1.90;;;9.90;99.90;;;;;;5021032;28;20033;-77
2022/05/22 03:56:42;;;;;;;3.50;1.48;;;9.90;99.90;;;;;;5021699;28;20032;-77
2022/05/22 03:59:08;;;;;;;1.00;0.90;;;10.00;99.90;;;;;;5023071;28;20571;-77
2022/05/22 04:01:35;;;;;;;8.95;1.92;;;10.10;99.90;;;;;;5021186;28;20582;-77
2022/05/22 04:04:01;;;;;;;2.03;1.63;;;10.20;99.90;;;;;;5023546;28;20017;-77
2022/05/22 04:06:27;;;;;;;0.80;0.80;;;10.20;99.90;;;;;;5023589;28;20025;-76
2022/05/22 04:08:53;;;;;;;1.80;1.05;;;10.30;99.90;;;;;;5023210;28;20051;-77
2022/05/22 04:11:20;;;;;;;4.13;1.05;;;10.40;99.90;;;;;;5021639;28;20022;-77
2022/05/22 04:13:53;;;;;;;1.65;1.00;;;10.50;99.90;;;;;;5023064;28;20502;-77
2022/05/22 04:16:19;;;;;;;1.05;0.93;;;10.60;99.90;;;;;;5021506;28;20037;-76
2022/05/22 04:18:50;;;;;;;2.08;1.45;;;10.60;99.90;;;;;;5037703;28;20050;-76
2022/05/22 04:21:17;;;;;;;3.65;1.85;;;10.60;99.90;;;;;;5021765;28;20458;-77
2022/05/22 04:26:35;;;;;;;1.35;0.93;;;10.70;99.90;;;;;;5021033;28;20036;-76
2022/05/22 04:29:02;;;;;;;1.55;1.42;;;10.80;99.90;;;;;;5021939;28;20026;-76
2022/05/22 04:31:28;;;;;;;1.60;1.10;;;10.90;99.90;;;;;;5021923;28;20025;-77
2022/05/22 04:33:55;;;;;;;1.10;1.00;;;11.10;99.90;;;;;;5021374;28;20096;-77
2022/05/22 04:36:21;;;;;;;2.28;0.75;;;11.20;99.90;;;;;;5018996;28;20490;-78
2022/05/22 04:38:47;;;;;;;5.20;1.73;;;11.20;99.90;;;;;;5016598;28;20026;-78
2022/05/22 04:41:12;;;;;;;1.75;1.60;;;11.30;99.90;;;;;;5016112;28;20044;-77
2022/05/22 04:43:38;;;;;;;1.90;0.93;;;11.50;99.90;;;;;;5016140;28;20048;-80
2022/05/22 04:46:07;;;;;;;0.95;0.93;;;11.60;99.90;;;;;;5015424;28;20022;-77
2022/05/22 04:48:33;;;;;;;1.75;0.80;;;11.70;99.90;;;;;;5016545;28;20022;-77
2022/05/22 04:50:59;;;;;;;1.08;1.02;;;11.90;99.90;;;;;;5016285;28;20030;-77
2022/05/22 04:53:26;;;;;;;1.17;0.80;;;12.20;99.90;;;;;;5016879;28;20080;-77
2022/05/22 04:55:54;;;;;;;0.90;0.82;;;12.20;99.90;;;;;;5015331;28;20033;-78
2022/05/22 04:58:20;;;;;;;3.22;1.30;;;12.40;99.90;;;;;;5018098;28;20026;-80
2022/05/22 05:00:46;;;;;;;3.03;1.35;;;12.50;99.90;;;;;;5016502;28;20022;-76
2022/05/22 05:03:13;;;;;;;5.70;1.20;;;12.70;99.90;;;;;;4998267;28;20415;-81
2022/05/22 05:05:39;;;;;;;1.23;1.13;;;12.80;99.90;;;;;;4997795;28;20018;-76
2022/05/22 05:08:06;;;;;;;1.90;1.20;;;12.90;99.90;;;;;;4996805;28;20026;-78
2022/05/22 05:10:32;;;;;;;1.08;0.98;;;13.00;99.90;;;;;;5016691;28;20167;-76
2022/05/22 05:13:00;;;;;;;0.80;0.80;;;13.30;99.90;;;;;;5013401;28;20065;-75
2022/05/22 05:15:26;;;;;;;1.10;1.02;;;15.20;99.90;;;;;;5009961;28;20022;-76
2022/05/22 05:17:53;;;;;;;2.28;1.00;;;13.80;99.90;;;;;;5009737;28;20382;-81
2022/05/22 05:20:23;;;;;;;1.00;0.90;;;14.10;99.90;;;;;;5010024;28;20050;-76
2022/05/22 05:22:49;;;;;;;;;;;14.30;99.90;;;;;;5010697;28;20103;-80
2022/05/22 05:25:15;;;;;;;2.90;1.70;;;14.40;99.90;;;;;;5009976;28;19913;-81
2022/05/22 05:27:41;;;;;;;3.10;2.47;;;14.70;99.90;;;;;;5025491;28;20030;-79
2022/05/22 05:30:08;;;;;;;3.70;1.75;;;14.70;99.90;;;;;;5010620;28;20037;-83
2022/05/22 05:32:34;;;;;;;2.38;1.50;;;14.80;99.90;;;;;;5010507;28;20033;-78
2022/05/22 05:35:03;;;;;;;2.45;1.88;;;15.00;99.90;;;;;;5037825;28;20095;-79
2022/05/22 05:37:28;;;;;;;4.00;1.50;;;15.00;99.90;;;;;;5014648;28;20494;-85
2022/05/22 05:39:54;;;;;;;5.88;2.42;;;15.00;99.90;;;;;;5008339;28;20117;-81
2022/05/22 05:42:22;;;;;;;2.90;2.33;;;14.80;99.90;;;;;;5009987;28;20025;-80
2022/05/22 05:44:48;;;;;;;2.80;2.00;;;15.00;99.90;;;;;;5008433;28;20459;-85
2022/05/22 05:47:14;;;;;;;2.47;2.28;;;15.30;99.90;;;;;;5010953;28;20046;-84
2022/05/22 05:49:40;;;;;;;1.70;1.60;;;15.40;99.90;;;;;;5009989;28;20060;-80
2022/05/22 05:52:07;;;;;;;3.35;1.73;;;15.50;99.90;;;;;;5026103;28;20029;-81
2022/05/22 05:54:33;;;;;;;1.90;1.63;;;15.40;99.90;;;;;;5011000;28;20502;-81
2022/05/22 05:56:59;;;;;;;2.30;1.73;;;15.30;99.90;;;;;;5026130;28;20105;-77
2022/05/22 05:59:26;;;;;;;2.55;1.80;;;15.60;99.90;;;;;;5010750;28;20022;-77
2022/05/22 06:01:52;;;;;;;2.28;1.42;;;15.60;99.90;;;;;;5010539;28;20076;-77
2022/05/22 06:04:18;;;;;;;2.97;2.17;;;15.70;99.90;;;;;;5009538;28;20022;-81
2022/05/22 06:06:44;;;;;;;3.78;1.50;;;15.90;99.90;;;;;;5010880;28;20022;-79
2022/05/22 06:09:10;;;;;;;2.33;1.92;;;16.20;99.90;;;;;;5009611;28;20033;-77
2022/05/22 06:11:36;;;;;;;3.38;2.22;;;16.40;99.90;;;;;;5011147;28;20017;-81
2022/05/22 06:14:02;;;;;;;1.60;1.50;;;16.40;99.90;;;;;;5010815;28;20120;-80
2022/05/22 06:16:28;;;;;;;5.03;1.58;;;16.80;99.90;;;;;;5011902;28;20026;-78
2022/05/22 06:18:54;;;;;;;2.70;1.60;;;16.90;99.90;;;;;;5008706;28;20053;-77
2022/05/22 06:21:21;;;;;;;2.15;1.42;;;16.90;99.90;;;;;;5010190;28;20018;-78
2022/05/22 06:23:48;;;;;;;2.60;1.27;;;16.90;99.90;;;;;;5010129;28;20018;-77
2022/05/22 06:26:17;;;;;;;1.85;1.40;;;16.80;99.90;;;;;;5025696;28;20026;-76
2022/05/22 06:28:44;;;;;;;2.35;2.15;;;16.90;99.90;;;;;;5010167;28;20132;-76
2022/05/22 06:31:11;;;;;;;1.70;1.60;;;17.30;99.90;;;;;;5010074;28;20037;-76
2022/05/22 06:33:37;;;;;;;1.40;1.30;;;17.40;99.90;;;;;;5025081;28;20121;-76
2022/05/22 06:36:08;;;;;;;2.38;1.30;;;17.40;99.90;;;;;;5008717;28;20049;-76
2022/05/22 06:41:18;;;;;;;1.50;1.40;;;17.20;99.90;;;;;;5010273;28;20029;-76
2022/05/22 06:43:46;;;;;;;2.17;1.40;;;17.30;99.90;;;;;;5010200;28;20029;-76
2022/05/22 06:46:12;;;;;;;5.55;1.63;;;17.00;99.90;;;;;;5019056;28;20108;-76
2022/05/22 06:48:37;;;;;;;1.55;1.20;;;16.80;99.90;;;;;;5022497;28;20073;-76
2022/05/22 06:51:03;;;;;;;1.30;1.20;;;17.10;99.90;;;;;;5021514;28;20494;-76
2022/05/22 06:53:29;;;;;;;0.90;0.90;;;17.60;99.90;;;;;;5026672;28;20418;-78
2022/05/22 06:55:55;;;;;;;1.75;0.90;;;17.40;99.90;;;;;;5010300;28;20032;-76
2022/05/22 06:58:21;;;;;;;2.13;1.35;;;17.30;99.90;;;;;;5009843;28;20033;-76
2022/05/22 07:00:51;;;;;;;2.42;1.20;;;17.30;99.90;;;;;;5010204;28;20018;-75
2022/05/22 07:03:17;;;;;;;1.33;0.98;;;17.60;99.90;;;;;;5008352;28;20053;-76
2022/05/22 07:05:43;;;;;;;1.65;1.25;;;17.80;99.90;;;;;;5011139;28;20371;-76
2022/05/22 07:08:09;;;;;;;1.48;1.13;;;18.30;99.90;;;;;;5012804;28;20034;-76
2022/05/22 07:13:19;;;;;;;1.77;1.50;;;19.60;99.90;;;;;;5014050;28;20036;-76
2022/05/22 07:15:45;;;;;;;1.00;0.90;;;19.40;99.90;;;;;;5012511;28;20113;-76
2022/05/22 07:18:11;;;;;;;3.72;1.20;;;19.10;99.90;;;;;;5013343;28;20086;-76
2022/05/22 07:20:37;;;;;;;3.20;0.80;;;19.30;99.90;;;;;;5013386;28;20112;-75
2022/05/22 07:23:05;;;;;;;1.48;1.08;;;19.50;99.90;;;;;;5010550;28;20076;-82
2022/05/22 07:25:31;;;;;;;1.20;1.10;;;;;;;;;;5013674;28;20425;-80
2022/05/22 07:27:57;;;;;;;2.38;1.17;;;19.60;99.90;;;;;;5013356;28;20816;-76
2022/05/22 07:30:22;;;;;;;1.98;1.33;;;19.80;99.90;;;;;;5013384;28;20109;-79
2022/05/22 07:32:48;;;;;;;1.30;1.13;;;;;;;;;;5007025;28;20121;-84
2022/05/22 07:35:14;;;;;;;2.20;1.17;;;19.20;99.90;;;;;;4992925;28;20054;-77
2022/05/22 07:37:40;;;;;;;2.35;1.20;;;19.10;99.90;;;;;;4994580;28;20493;-78
2022/05/22 07:40:06;;;;;;;1.88;0.90;;;18.90;99.90;;;;;;4993641;28;20028;-76
2022/05/22 07:42:32;;;;;;;2.20;1.20;;;19.00;99.90;;;;;;4992133;28;20394;-78
2022/05/22 07:44:57;;;;;;;1.80;1.10;;;19.10;99.90;;;;;;4993580;28;20105;-76
2022/05/22 07:47:23;;;;;;;1.30;1.20;;;19.30;99.90;;;;;;4995173;28;20186;-76
2022/05/22 07:52:39;;;;;;;1.35;1.25;;;19.20;99.90;;;;;;4991781;28;20623;-77
2022/05/22 07:55:05;;;;;;;1.25;1.00;;;18.70;99.90;;;;;;5003881;28;20467;-78
2022/05/22 07:57:30;;;;;;;2.22;1.00;;;18.80;99.90;;;;;;5002960;28;20023;-77
2022/05/22 07:59:56;;;;;;;2.88;1.35;;;18.80;99.90;;;;;;4987678;28;20499;-77
2022/05/22 08:02:22;;;;;;;5.68;1.20;;;18.50;99.90;;;;;;4987824;28;20036;-78
2022/05/22 08:04:47;;;;;;;2.72;1.00;;;19.00;99.90;;;;;;4987682;28;20114;-78
2022/05/22 08:07:13;;;;;;;2.72;1.10;;;19.10;99.90;;;;;;4987870;28;20061;-79
2022/05/22 08:09:39;;;;;;;2.30;1.42;;;19.30;99.90;;;;;;4988303;28;20117;-77
2022/05/22 08:12:05;;;;;;;2.10;0.93;;;19.40;99.90;;;;;;4987814;28;20490;-78
2022/05/22 08:14:32;;;;;;;2.60;1.65;;;19.50;99.90;;;;;;4988905;28;20438;-78
2022/05/22 08:16:58;;;;;;;2.17;1.00;;;19.50;99.90;;;;;;4987947;28;20399;-77
2022/05/22 08:19:24;;;;;;;1.02;0.90;;;19.10;99.90;;;;;;4989115;28;20065;-82
2022/05/22 08:21:49;;;;;;;0.85;0.85;;;19.20;99.90;;;;;;4987723;28;20077;-81
2022/05/22 08:24:15;;;;;;;0.90;0.90;;;19.60;99.90;;;;;;4988545;28;20064;-81
2022/05/22 08:26:41;;;;;;;1.00;1.00;;;19.70;99.90;;;;;;4987368;28;20857;-77
2022/05/22 08:29:07;;;;;;;1.05;1.05;;;20.50;99.90;;;;;;4989037;28;20085;-76
2022/05/22 08:31:33;;;;;;;1.02;0.80;;;20.50;99.90;;;;;;4991940;28;20030;-77
2022/05/22 08:33:58;;;;;;;6.18;1.67;;;20.50;99.90;;;;;;4990246;28;20040;-76
2022/05/22 08:36:24;;;;;;;1.90;1.05;;;20.50;99.90;;;;;;4992213;28;20030;-77
2022/05/22 08:38:50;;;;;;;1.52;0.70;;;20.70;99.90;;;;;;4996948;28;20113;-76
2022/05/22 08:41:28;;;;;;;0.85;0.82;;;20.40;99.90;;;;;;5003520;28;20101;-77
2022/05/22 08:44:18;;;;;;;4.20;0.93;;;20.90;99.90;;;;;;5009463;28;20092;-77
2022/05/22 08:47:03;;;;;;;1.42;1.20;;;21.60;83.80;;;;;;5011756;28;20399;-77
2022/05/22 08:49:38;;;;;;;1.13;1.02;;;21.10;87.10;;;;;;5011677;28;20105;-86
2022/05/22 08:52:17;;;;;;;0.85;0.82;;;20.70;99.90;;;;;;5010154;28;20068;-76
2022/05/22 08:54:47;;;;;;;1.45;1.35;;;19.90;99.90;;;;;;5003920;28;20615;-77
2022/05/22 09:00:12;;;;;;;2.50;0.80;;;20.00;99.90;;;;;;5014027;28;20164;-81
2022/05/22 09:02:45;;;;;;;2.55;0.88;;;20.50;99.90;;;;;;5010512;28;20059;-78
2022/05/22 09:05:16;;;;;;;1.27;1.02;;;21.30;97.10;;;;;;5024111;28;20121;-78
2022/05/22 09:07:51;;;;;;;2.15;1.45;;;21.40;99.90;;;;;;4998836;28;20031;-76
2022/05/22 09:10:24;;;;;;;1.25;0.82;;;21.90;96.90;;;;;;5001346;28;20022;-80
2022/05/22 09:13:08;;;;;;;0.90;0.90;;;22.60;73.50;;;;;;5002898;28;20467;-83
2022/05/22 09:15:48;;;;;;;2.15;0.80;;;23.10;70.10;;;;;;5003600;28;20018;-77
2022/05/22 09:18:13;;;;;;;1.05;0.70;;;23.20;68.30;;;;;;5011919;28;20205;-75
2022/05/22 09:20:45;;;;;;;1.20;0.82;;;23.40;67.60;;;;;;5006109;28;20030;-75
2022/05/22 09:23:22;;;;;;;0.73;0.73;;;23.40;74.40;;;;;;5011976;28;20400;-77
2022/05/22 09:26:02;;;;;;;1.83;1.15;;;23.40;72.40;;;;;;5008409;28;20058;-80
2022/05/22 09:28:37;;;;;;;0.70;0.70;;;23.50;67.80;;;;;;5012385;28;20317;-77
2022/05/22 09:31:26;;;;;;;2.85;1.52;;;23.40;69.10;;;;;;5008537;28;20025;-79
2022/05/22 09:34:01;;;;;;;;;;;23.60;69.70;;;;;;5000226;28;20033;-77
2022/05/22 09:36:57;;;;;;;1.10;0.70;;;22.80;71.00;;;;;;5000986;28;19949;-78
2022/05/22 09:39:38;;;;;;;1.42;0.98;;;23.40;68.00;;;;;;5012121;28;20038;-80
2022/05/22 09:42:21;;;;;;;1.30;0.75;;;23.40;63.10;;;;;;5001261;28;20581;-79
2022/05/22 09:45:08;;;;;;;2.28;1.00;;;23.60;65.00;;;;;;5006582;28;20029;-79
2022/05/22 09:47:43;;;;;;;2.25;1.35;;;23.20;70.00;;;;;;5006189;28;20026;-75
2022/05/22 09:50:20;;;;;;;0.80;0.77;;;23.40;67.10;;;;;;5012023;28;20069;-75
2022/05/22 09:52:48;;;;;;;1.88;0.70;;;23.10;73.70;;;;;;5002613;28;20034;-76
2022/05/22 09:55:47;;;;;;;3.58;0.80;;;23.50;65.90;;;;;;5000864;28;20057;-76
2022/05/22 09:58:32;;;;;;;3.85;0.60;;;23.40;64.10;;;;;;5004785;28;20444;-76
2022/05/22 10:01:24;;;;;;;1.30;1.20;;;23.00;69.10;;;;;;5007298;28;20068;-75
2022/05/22 10:04:05;;;;;;;0.70;0.60;;;22.80;67.50;;;;;;5000123;28;20029;-77
2022/05/22 10:06:58;;;;;;;1.00;0.75;;;23.00;67.50;;;;;;5000448;28;20030;-75
2022/05/22 10:09:47;;;;;;;0.90;0.90;;;23.00;69.80;;;;;;5001531;28;20021;-74
2022/05/22 10:12:21;;;;;;;2.35;1.00;;;22.80;68.20;;;;;;5000195;28;20384;-75
2022/05/22 10:15:06;;;;;;;1.42;1.13;;;22.90;70.90;;;;;;4999624;28;20125;-75
2022/05/22 10:17:49;;;;;;;0.85;0.70;;;23.10;71.80;;;;;;5000133;28;20026;-75
2022/05/22 10:20:36;;;;;;;0.95;0.70;;;23.00;72.70;;;;;;5003549;28;20123;-75
2022/05/22 10:23:10;;;;;;;1.70;0.90;;;23.20;66.80;;;;;;4995323;28;20062;-75
2022/05/22 10:25:58;;;;;;;2.67;0.82;;;23.20;65.40;;;;;;4999874;28;20014;-74
2022/05/22 10:28:37;;;;;;;1.13;0.77;;;23.20;69.70;;;;;;5005648;28;20088;-75
2022/05/22 10:31:07;;;;;;;0.82;0.75;;;22.80;70.70;;;;;;4997355;28;20023;-79
2022/05/22 10:33:56;;;;;;;3.22;0.70;;;23.10;71.90;;;;;;4996289;28;20034;-75
2022/05/22 10:36:24;;;;;;;;;;;23.80;74.70;;;;;;5000353;28;20026;-77
2022/05/22 10:38:55;;;;;;;2.67;0.98;;;23.90;67.50;;;;;;5001416;28;19945;-78
2022/05/22 10:44:29;;;;;;;6.00;1.45;;;24.00;67.00;;;;;;5010344;28;20433;-77
2022/05/22 10:46:58;;;;;;;0.73;0.70;;;24.30;65.40;;;;;;5008099;28;20025;-79
2022/05/22 10:49:34;;;;;;;0.77;0.77;;;24.50;64.00;;;;;;5009441;28;20202;-78
2022/05/22 10:52:03;;;;;;;1.70;1.23;;;24.70;64.90;;;;;;5009854;28;20120;-77
2022/05/22 10:54:50;;;;;;;8.93;1.02;;;25.00;63.80;;;;;;5009927;28;20069;-76
2022/05/22 10:57:23;;;;;;;2.30;0.80;;;24.70;64.50;;;;;;5018824;28;20064;-78
2022/05/22 10:59:49;;;;;;;1.88;1.00;;;24.50;63.80;;;;;;5019720;28;20209;-75
2022/05/22 11:02:20;;;;;;;1.83;0.80;;;24.40;65.20;;;;;;5019941;28;20280;-75
2022/05/22 11:04:47;;;;;;;3.30;1.13;;;24.60;64.60;;;;;;5019566;28;20029;-77
2022/05/22 11:07:24;;;;;;;2.08;0.50;;;24.50;63.10;;;;;;5034746;28;20060;-76
2022/05/22 11:09:51;;;;;;;1.90;1.25;;;24.70;64.80;;;;;;5017490;28;20017;-75
2022/05/22 11:12:21;;;;;;;1.20;0.70;;;24.70;64.10;;;;;;5016595;28;20142;-75
2022/05/22 11:14:47;;;;;;;0.52;0.52;;;24.60;63.60;;;;;;5016914;28;20040;-77
2022/05/22 11:17:21;;;;;;;1.67;0.90;;;23.80;64.40;;;;;;5013975;28;20038;-77
2022/05/22 11:20:08;;;;;;;1.70;0.70;;;23.80;69.20;;;;;;5014156;28;20069;-77
2022/05/22 11:22:58;;;;;;;1.60;0.73;;;24.00;92.40;;;;;;5025557;28;20018;-83
2022/05/22 11:25:35;;;;;;;1.33;0.93;;;24.20;67.70;;;;;;5005534;28;20068;-79
2022/05/22 11:28:04;;;;;;;1.33;0.60;;;24.00;66.00;;;;;;4995985;28;20490;-80
2022/05/22 11:30:35;;;;;;;3.13;0.90;;;24.10;69.60;;;;;;4999758;28;20077;-79
2022/05/22 11:33:25;;;;;;;0.75;0.43;;;24.10;65.60;;;;;;4998561;28;20132;-82
2022/05/22 11:36:08;;;;;;;1.27;0.57;;;25.10;65.40;;;;;;5015471;28;20022;-82
2022/05/22 11:38:42;;;;;;;1.92;0.68;;;25.70;61.40;;;;;;5002296;28;20036;-83
2022/05/22 11:41:37;;;;;;;1.85;0.57;;;25.80;59.80;;;;;;5008722;28;20103;-82
2022/05/22 11:44:21;;;;;;;1.30;0.50;;;25.90;61.10;;;;;;5009756;28;20044;-82
2022/05/22 11:47:41;;;;;;;1.77;0.82;;;26.30;61.40;;;;;;5009009;28;20022;-81
2022/05/22 11:50:22;;;;;;;3.03;0.60;;;25.70;60.70;;;;;;4971089;28;20430;-85
2022/05/22 11:53:15;;;;;;;0.60;0.60;;;25.90;60.80;;;;;;5011252;28;20434;-83
2022/05/22 11:55:58;;;;;;;1.10;0.68;;;26.20;62.40;;;;;;5013418;28;20034;-84
2022/05/22 11:58:36;;;;;;;2.30;0.70;;;26.10;58.70;;;;;;5012366;28;20466;-84
2022/05/22 12:01:27;;;;;;;1.95;0.80;;;25.70;58.30;;;;;;5029021;28;20046;-84
2022/05/22 12:04:23;;;;;;;1.20;0.82;;;26.20;60.10;;;;;;5028006;28;20029;-80
2022/05/22 12:07:01;;;;;;;0.90;0.82;;;26.00;58.10;;;;;;5012599;28;20113;-81
2022/05/22 12:09:26;;;;;;;0.50;0.50;;;25.00;54.80;;;;;;5011367;28;20037;-82
2022/05/22 12:12:20;;;;;;;2.17;0.80;;;27.20;58.40;;;;;;5012872;28;20422;-82
2022/05/22 12:14:54;;;;;;;2.35;0.95;;;26.40;61.20;;;;;;5028071;28;20038;-83
2022/05/22 12:17:42;;;;;;;2.33;0.80;;;26.40;59.00;;;;;;5011423;28;20049;-79
2022/05/22 12:20:16;;;;;;;0.80;0.75;;;26.50;57.30;;;;;;5010546;28;20576;-80
2022/05/22 12:23:08;;;;;;;1.75;0.40;;;25.90;58.20;;;;;;5010885;28;20048;-80
2022/05/22 12:25:42;;;;;;;1.13;0.88;;;25.60;57.00;;;;;;5012554;28;20181;-80
2022/05/22 12:28:37;;;;;;;0.75;0.68;;;25.60;58.20;;;;;;5011181;28;20022;-83
2022/05/22 12:31:08;;;;;;;1.70;0.52;;;26.00;58.40;;;;;;5027881;28;20117;-82
2022/05/22 12:33:36;;;;;;;4.28;1.20;;;25.80;57.30;;;;;;5012067;28;20036;-81
2022/05/22 12:36:04;;;;;;;0.90;0.70;;;25.90;58.10;;;;;;5011733;28;20499;-84
2022/05/22 12:38:30;;;;;;;1.17;0.85;;;25.50;58.60;;;;;;5011366;28;20041;-82
2022/05/22 12:41:12;;;;;;;1.63;0.70;;;26.30;56.30;;;;;;5027565;28;20072;-82
2022/05/22 12:43:40;;;;;;;2.00;1.17;;;27.00;57.30;;;;;;5012151;28;20036;-81
2022/05/22 12:46:08;;;;;;;1.93;0.77;;;27.00;57.70;;;;;;5026579;28;20466;-79
2022/05/22 12:48:34;;;;;;;0.90;0.63;;;27.80;56.10;;;;;;5011439;28;20030;-80
2022/05/22 12:51:11;;;;;;;0.98;0.80;;;28.40;57.90;;;;;;5010761;28;20540;-82
2022/05/22 12:53:40;;;;;;;1.33;1.05;;;28.30;54.90;;;;;;5010468;28;20037;-80
2022/05/22 12:56:27;;;;;;;1.30;0.80;;;28.30;54.90;;;;;;5027052;28;20517;-80
2022/05/22 12:58:57;;;;;;;2.47;0.88;;;27.60;55.20;;;;;;4999542;28;20026;-81
2022/05/22 13:01:37;;;;;;;0.95;0.75;;;27.50;55.20;;;;;;5000868;28;20165;-81
2022/05/22 13:04:15;;;;;;;1.40;0.90;;;27.50;56.30;;;;;;4999976;28;20088;-81
2022/05/22 13:07:03;;;;;;;1.17;0.73;;;28.10;54.80;;;;;;4999449;28;20021;-82
2022/05/22 13:09:31;;;;;;;0.90;0.80;;;28.40;53.60;;;;;;4998507;28;20076;-81
2022/05/22 13:12:27;;;;;;;1.48;0.80;;;28.90;56.90;;;;;;4996340;28;20062;-82
2022/05/22 13:15:01;;;;;;;1.40;0.60;;;29.20;53.60;;;;;;4997352;28;20042;-82
2022/05/22 13:17:43;;;;;;;3.42;0.88;;;29.40;52.30;;;;;;5002691;28;20056;-83
2022/05/22 13:20:35;;;;;;;0.63;0.60;;;29.30;54.20;;;;;;4999903;28;20112;-84
2022/05/22 13:23:25;;;;;;;0.68;0.68;;;29.50;52.10;;;;;;4996267;28;20053;-83
2022/05/22 13:26:04;;;;;;;1.05;0.70;;;29.50;53.00;;;;;;5012379;28;20030;-81